Fuji Maru — JD2030 — position and weather

sailwx.info

Track history (hours):
 
Tides and Currents Weather Stations Pressure Air Temp Water Temp Dewpoint Dewpoint Depression Visibility Wind Speed Wind Dir Waves Ship Positions

Fuji Maru

Last reported at 2016-Apr-29 13:31 UTC. Time now 2016-Apr-29 13:57 UTC.
Position N 35°39' E 139°46'.

Length 38 m; draft 4.4 m.

Type: Tug. MMSI: 431001102.

Date/timePositionNaut miles runAvg speedWind from/ knotsBaromVisibWave heightAir tempDewpointWater temp
2016-Apr-29 13:31N 35°39' E 139°46'0 0.0
2016-Apr-29 12:13N 35°39' E 139°46'0 0.0
2016-Apr-29 11:25N 35°39' E 139°46'0 0.0
2016-Apr-29 10:31N 35°39' E 139°46'0 0.0
2016-Apr-29 09:13N 35°39' E 139°46'0 0.0
2016-Apr-29 08:28N 35°39' E 139°46'3 3.4
2016-Apr-29 07:30N 35°36' E 139°47'0 0.1
2016-Apr-29 06:33N 35°35' E 139°47'1 1.3
2016-Apr-29 05:33N 35°37' E 139°46'2 2.0
2016-Apr-29 04:29N 35°39' E 139°46'0 0.0
2016-Apr-29 03:26N 35°39' E 139°46'0 0.0
2016-Apr-29 02:23N 35°39' E 139°46'0 0.0
2016-Apr-29 01:32N 35°39' E 139°46'0 0.0
2016-Apr-29 00:32N 35°39' E 139°46'3 3.1
2016-Apr-28 23:31N 35°36' E 139°47'1 1.2
2016-Apr-28 22:33N 35°35' E 139°48'2 2.3
2016-Apr-28 21:33N 35°34' E 139°50'3 3.4
2016-Apr-28 20:33N 35°36' E 139°46'3 2.8
2016-Apr-28 19:33N 35°38' E 139°46'0 0.3
2016-Apr-28 18:26N 35°39' E 139°46'0 0.0
2016-Apr-28 17:26N 35°39' E 139°46'0 0.0
2016-Apr-28 16:32N 35°39' E 139°46'0 0.0
2016-Apr-28 15:32N 35°39' E 139°46'0 0.0
2016-Apr-28 14:32N 35°39' E 139°46'0 0.0
2016-Apr-28 13:32N 35°39' E 139°46'0 0.0
2016-Apr-28 12:32N 35°39' E 139°46'0 0.0
2016-Apr-28 11:32N 35°39' E 139°46'0 0.0
2016-Apr-28 10:26N 35°39' E 139°46'0 0.0
2016-Apr-28 09:32N 35°39' E 139°46'0 0.0
2016-Apr-28 08:32N 35°39' E 139°46'0 0.0
2016-Apr-28 07:29N 35°39' E 139°46'0 0.0
2016-Apr-28 06:32N 35°39' E 139°46'0 0.0
2016-Apr-28 05:29N 35°39' E 139°46'0 0.0
2016-Apr-28 04:23N 35°39' E 139°46'0 0.0
2016-Apr-28 03:26N 35°39' E 139°46'0 0.0
2016-Apr-28 02:26N 35°39' E 139°46'0 0.0
2016-Apr-28 01:29N 35°39' E 139°46'0 0.0
2016-Apr-28 00:32N 35°39' E 139°46'3 2.9
2016-Apr-27 23:33N 35°36' E 139°47'2 2.5
2016-Apr-27 22:33N 35°34' E 139°48'1 1.2
2016-Apr-27 21:34N 35°35' E 139°48'4 4.0
2016-Apr-27 20:32N 35°39' E 139°46'0 0.0
2016-Apr-27 19:32N 35°39' E 139°46'0 0.0
2016-Apr-27 18:32N 35°39' E 139°46'0 0.0
2016-Apr-27 17:26N 35°39' E 139°46'0 0.0
2016-Apr-27 16:32N 35°39' E 139°46'0 0.0
2016-Apr-27 15:29N 35°39' E 139°46'0 0.0
2016-Apr-27 14:32N 35°39' E 139°46'0 0.0
2016-Apr-27 13:32N 35°39' E 139°46'0 0.0
2016-Apr-27 12:32N 35°39' E 139°46'0 0.0
2016-Apr-27 11:29N 35°39' E 139°46'0 0.0
2016-Apr-27 10:32N 35°39' E 139°46'0 0.0
2016-Apr-27 09:32N 35°39' E 139°46'0 0.0
2016-Apr-27 08:32N 35°39' E 139°46'0 0.0
2016-Apr-27 07:29N 35°39' E 139°46'0 0.0
2016-Apr-27 06:32N 35°39' E 139°46'0 0.0
2016-Apr-27 04:26N 35°39' E 139°46'0 0.0
2016-Apr-27 03:32N 35°39' E 139°46'0 0.0
2016-Apr-27 02:29N 35°39' E 139°46'0 0.0
2016-Apr-27 01:32N 35°39' E 139°46'0 0.0
2016-Apr-27 00:32N 35°39' E 139°46'0 0.0
2016-Apr-26 23:29N 35°39' E 139°46'0 0.0
2016-Apr-26 22:26N 35°39' E 139°46'0 0.0
2016-Apr-26 21:32N 35°39' E 139°46'0 0.0
2016-Apr-26 20:32N 35°39' E 139°46'0 0.0
2016-Apr-26 19:29N 35°39' E 139°46'2 2.4
2016-Apr-26 18:33N 35°37' E 139°46'0 0.2
2016-Apr-26 17:33N 35°37' E 139°46'1 1.3
2016-Apr-26 16:32N 35°38' E 139°46'0 0.0
2016-Apr-26 15:32N 35°38' E 139°46'0 0.0
2016-Apr-26 14:32N 35°38' E 139°46'0 0.0
2016-Apr-26 13:32N 35°38' E 139°46'3 2.6
2016-Apr-26 12:33N 35°36' E 139°48'1 0.8
2016-Apr-26 11:20N 35°36' E 139°46'0 0.0
2016-Apr-26 10:32N 35°36' E 139°46'0 0.0
2016-Apr-26 09:26N 35°36' E 139°46'0 0.5
2016-Apr-26 08:33N 35°36' E 139°47'0 0.4
2016-Apr-26 07:34N 35°36' E 139°47'3 3.0
2016-Apr-26 06:30N 35°39' E 139°46'0 0.0
2016-Apr-26 05:33N 35°39' E 139°46'0 0.0
2016-Apr-26 04:27N 35°39' E 139°46'0 0.0
2016-Apr-26 03:30N 35°39' E 139°46'0 0.0
2016-Apr-26 02:33N 35°39' E 139°46'0 0.0
2016-Apr-26 01:33N 35°39' E 139°46'0 0.0
2016-Apr-26 00:27N 35°39' E 139°46'0 0.0
2016-Apr-25 23:33N 35°39' E 139°46'3 3.5
2016-Apr-25 22:34N 35°36' E 139°47'0 0.2
2016-Apr-25 21:33N 35°36' E 139°47'3 3.1
2016-Apr-25 20:29N 35°39' E 139°46'0 0.0
2016-Apr-25 19:32N 35°39' E 139°46'0 0.0
2016-Apr-25 18:26N 35°39' E 139°46'0 0.0
2016-Apr-25 17:32N 35°39' E 139°46'0 0.0
2016-Apr-25 16:26N 35°39' E 139°46'0 0.0
2016-Apr-25 15:26N 35°39' E 139°46'0 0.0
2016-Apr-25 14:29N 35°39' E 139°46'0 0.0
2016-Apr-25 13:29N 35°39' E 139°46'0 0.0
2016-Apr-25 12:32N 35°39' E 139°46'0 0.0
2016-Apr-25 11:32N 35°39' E 139°46'0 0.0
2016-Apr-25 10:32N 35°39' E 139°46'0 0.0
2016-Apr-25 09:32N 35°39' E 139°46'0 0.0
2016-Apr-25 08:32N 35°39' E 139°46'0 0.0
2016-Apr-25 07:26N 35°39' E 139°46'0 0.0
2016-Apr-25 06:32N 35°39' E 139°46'0 0.0
2016-Apr-25 05:32N 35°39' E 139°46'0 0.0
2016-Apr-25 04:29N 35°39' E 139°46'0 0.0
2016-Apr-25 03:32N 35°39' E 139°46'0 0.0
2016-Apr-25 02:32N 35°39' E 139°46'0 0.0
2016-Apr-25 01:32N 35°39' E 139°46'0 0.0
2016-Apr-25 00:29N 35°39' E 139°46'0 0.0
2016-Apr-24 23:32N 35°39' E 139°46'0 0.0
2016-Apr-24 22:32N 35°39' E 139°46'0 0.0
2016-Apr-24 21:29N 35°39' E 139°46'0 0.0
2016-Apr-24 20:29N 35°39' E 139°46'0 0.0
2016-Apr-24 19:29N 35°39' E 139°46'0 0.0
2016-Apr-24 18:32N 35°39' E 139°46'0 0.0
2016-Apr-24 17:32N 35°39' E 139°46'0 0.0
2016-Apr-24 16:32N 35°39' E 139°46'0 0.0
2016-Apr-24 15:32N 35°39' E 139°46'3 3.0
2016-Apr-24 14:32N 35°36' E 139°47'1 0.7
2016-Apr-24 13:33N 35°36' E 139°46'2 1.5
2016-Apr-24 12:26N 35°38' E 139°46'0 0.0
2016-Apr-24 11:32N 35°38' E 139°46'0 0.0
2016-Apr-24 10:32N 35°38' E 139°46'2 2.2
2016-Apr-24 09:30N 35°36' E 139°47'1 0.6
2016-Apr-24 08:33N 35°36' E 139°47'2 2.5
2016-Apr-24 07:32N 35°39' E 139°46'0 0.0
2016-Apr-24 06:32N 35°39' E 139°46'0 0.0
2016-Apr-24 05:32N 35°39' E 139°46'0 0.0
2016-Apr-24 04:23N 35°39' E 139°46'0 0.0
2016-Apr-24 03:32N 35°39' E 139°46'0 0.0
2016-Apr-24 02:26N 35°39' E 139°46'0 0.0
2016-Apr-24 01:29N 35°39' E 139°46'0 0.0
2016-Apr-24 00:32N 35°39' E 139°46'0 0.0
2016-Apr-23 23:32N 35°39' E 139°46'0 0.0
2016-Apr-23 22:32N 35°39' E 139°46'0 0.0
2016-Apr-23 21:32N 35°39' E 139°46'0 0.0
2016-Apr-23 20:32N 35°39' E 139°46'0 0.0
2016-Apr-23 19:32N 35°39' E 139°46'0 0.0
2016-Apr-23 18:32N 35°39' E 139°46'0 0.0
2016-Apr-23 17:32N 35°39' E 139°46'0 0.0
2016-Apr-23 16:32N 35°39' E 139°46'0 0.0
2016-Apr-23 15:32N 35°39' E 139°46'0 0.0
2016-Apr-23 14:32N 35°39' E 139°46'0 0.0
2016-Apr-23 13:32N 35°39' E 139°46'0 0.0
2016-Apr-23 12:32N 35°39' E 139°46'0 0.0
2016-Apr-23 11:32N 35°39' E 139°46'0 0.0
2016-Apr-23 10:32N 35°39' E 139°46'0 0.0
2016-Apr-23 09:32N 35°39' E 139°46'0 0.0
2016-Apr-23 08:29N 35°39' E 139°46'0 0.0
2016-Apr-23 07:32N 35°39' E 139°46'0 0.0
2016-Apr-23 06:32N 35°39' E 139°46'0 0.0
2016-Apr-23 05:32N 35°39' E 139°46'2 2.2
2016-Apr-23 04:33N 35°37' E 139°47'2 2.2
2016-Apr-23 03:33N 35°35' E 139°48'1 1.1
2016-Apr-23 02:31N 35°35' E 139°47'0 0.1
2016-Apr-23 01:33N 35°35' E 139°47'4 3.3
2016-Apr-23 00:29N 35°39' E 139°46'0 0.0
2016-Apr-22 23:23N 35°39' E 139°46'0 0.0
2016-Apr-22 22:32N 35°39' E 139°46'0 0.0
2016-Apr-22 21:29N 35°39' E 139°46'0 0.0
2016-Apr-22 20:29N 35°39' E 139°46'0 0.0
2016-Apr-22 19:29N 35°39' E 139°46'0 0.0
2016-Apr-22 18:32N 35°39' E 139°46'0 0.0
2016-Apr-22 17:32N 35°39' E 139°46'0 0.0
2016-Apr-22 16:32N 35°39' E 139°46'0 0.0
2016-Apr-22 15:32N 35°39' E 139°46'0 0.0
2016-Apr-22 14:32N 35°39' E 139°46'0 0.0
2016-Apr-22 13:26N 35°39' E 139°46'0 0.0
2016-Apr-22 12:32N 35°39' E 139°46'0 0.0
2016-Apr-22 11:32N 35°39' E 139°46'3 2.9
2016-Apr-22 10:34N 35°36' E 139°47'2 2.1
2016-Apr-22 09:33N 35°38' E 139°46'2 2.1
2016-Apr-22 08:33N 35°37' E 139°48'1 1.2
2016-Apr-22 07:30N 35°36' E 139°46'1 0.6
2016-Apr-22 06:27N 35°36' E 139°46'1 1.1
2016-Apr-22 05:33N 35°37' E 139°47'2 2.2
2016-Apr-22 04:29N 35°39' E 139°46'0 0.0
2016-Apr-22 03:32N 35°39' E 139°46'0 0.0
2016-Apr-22 02:32N 35°39' E 139°46'0 0.0
2016-Apr-22 01:32N 35°39' E 139°46'0 0.0
2016-Apr-22 00:32N 35°39' E 139°46'0 0.0
2016-Apr-21 23:32N 35°39' E 139°46'3 2.7
2016-Apr-21 22:31N 35°36' E 139°46'2 1.7
2016-Apr-21 21:33N 35°35' E 139°48'4 3.9
2016-Apr-21 20:30N 35°39' E 139°46'0 0.0
2016-Apr-21 19:33N 35°39' E 139°46'0 0.0
2016-Apr-21 18:33N 35°39' E 139°46'0 0.0
2016-Apr-21 17:33N 35°39' E 139°46'0 0.0
2016-Apr-21 16:30N 35°39' E 139°46'0 0.0
2016-Apr-21 15:33N 35°39' E 139°46'0 0.0
2016-Apr-21 14:30N 35°39' E 139°46'0 0.0
2016-Apr-21 13:33N 35°39' E 139°46'0 0.0
2016-Apr-21 12:33N 35°39' E 139°46'0 0.0
2016-Apr-21 11:30N 35°39' E 139°46'0 0.0
2016-Apr-21 10:33N 35°39' E 139°46'2 1.8
2016-Apr-21 09:33N 35°37' E 139°46'2 2.5
2016-Apr-21 08:33N 35°35' E 139°48'1 1.1
2016-Apr-21 07:30N 35°36' E 139°46'2 1.8
2016-Apr-21 06:33N 35°37' E 139°46'2 1.5
2016-Apr-21 05:31N 35°39' E 139°46'0 0.0
2016-Apr-21 04:31N 35°39' E 139°46'0 0.0
2016-Apr-21 03:19N 35°39' E 139°46'0 0.0
2016-Apr-21 02:28N 35°39' E 139°46'0 0.0
2016-Apr-21 01:31N 35°39' E 139°46'0 0.0
2016-Apr-21 00:28N 35°39' E 139°46'0 0.0
2016-Apr-20 23:31N 35°39' E 139°46'3 2.9
2016-Apr-20 22:32N 35°36' E 139°47'3 2.8
2016-Apr-20 21:31N 35°34' E 139°49'3 3.3
2016-Apr-20 20:33N 35°36' E 139°46'0 0.3
2016-Apr-20 19:33N 35°36' E 139°46'3 2.8
2016-Apr-20 18:31N 35°39' E 139°46'0 0.0
2016-Apr-20 17:31N 35°39' E 139°46'0 0.0
2016-Apr-20 16:28N 35°39' E 139°46'0 0.0
2016-Apr-20 15:19N 35°39' E 139°46'0 0.0
2016-Apr-20 14:25N 35°39' E 139°46'0 0.0
2016-Apr-20 13:31N 35°39' E 139°46'0 0.0
2016-Apr-20 12:31N 35°39' E 139°46'0 0.0
2016-Apr-20 11:31N 35°39' E 139°46'0 0.0
2016-Apr-20 10:28N 35°39' E 139°46'0 0.0
2016-Apr-20 09:31N 35°39' E 139°46'0 0.0
2016-Apr-20 08:31N 35°39' E 139°46'0 0.0
2016-Apr-20 07:31N 35°39' E 139°46'0 0.0
2016-Apr-20 06:19N 35°39' E 139°46'0 0.0
2016-Apr-20 05:31N 35°39' E 139°46'2 1.9
2016-Apr-20 04:33N 35°37' E 139°46'3 2.6
2016-Apr-20 03:33N 35°35' E 139°48'3 2.9
2016-Apr-20 02:33N 35°37' E 139°46'2 1.4
2016-Apr-20 01:29N 35°39' E 139°46'0 0.0
2016-Apr-20 00:29N 35°39' E 139°46'0 0.0
2016-Apr-19 23:32N 35°39' E 139°46'0 0.0
2016-Apr-19 22:26N 35°39' E 139°46'0 0.0
2016-Apr-19 21:32N 35°39' E 139°46'0 0.0
2016-Apr-19 20:32N 35°39' E 139°46'0 0.0
2016-Apr-19 19:20N 35°39' E 139°46'0 0.0
2016-Apr-19 18:23N 35°39' E 139°46'0 0.0
2016-Apr-19 17:32N 35°39' E 139°46'0 0.0
2016-Apr-19 16:32N 35°39' E 139°46'0 0.0
2016-Apr-19 15:32N 35°39' E 139°46'0 0.0
2016-Apr-19 14:29N 35°39' E 139°46'0 0.0
2016-Apr-19 13:32N 35°39' E 139°46'  
Track history (hours):
 
Tides and Currents Weather Stations Pressure Air Temp Water Temp Dewpoint Dewpoint Depression Visibility Wind Speed Wind Dir Waves Ship Positions

Fuji Maru

Last reported at 2016-Apr-29 13:31 UTC. Time now 2016-Apr-29 13:57 UTC.
Position N 35°39' E 139°46'.

Length 38 m; draft 4.4 m.

Type: Tug. MMSI: 431001102.

Date/timePositionNaut miles runAvg speedWind from/ knotsBaromVisibWave heightAir tempDewpointWater temp
2016-Apr-29 13:31N 35°39' E 139°46'0 0.0
2016-Apr-29 12:13N 35°39' E 139°46'0 0.0
2016-Apr-29 11:25N 35°39' E 139°46'0 0.0
2016-Apr-29 10:31N 35°39' E 139°46'0 0.0
2016-Apr-29 09:13N 35°39' E 139°46'0 0.0
2016-Apr-29 08:28N 35°39' E 139°46'3 3.4
2016-Apr-29 07:30N 35°36' E 139°47'0 0.1
2016-Apr-29 06:33N 35°35' E 139°47'1 1.3
2016-Apr-29 05:33N 35°37' E 139°46'2 2.0
2016-Apr-29 04:29N 35°39' E 139°46'0 0.0
2016-Apr-29 03:26N 35°39' E 139°46'0 0.0
2016-Apr-29 02:23N 35°39' E 139°46'0 0.0
2016-Apr-29 01:32N 35°39' E 139°46'0 0.0
2016-Apr-29 00:32N 35°39' E 139°46'3 3.1
2016-Apr-28 23:31N 35°36' E 139°47'1 1.2
2016-Apr-28 22:33N 35°35' E 139°48'2 2.3
2016-Apr-28 21:33N 35°34' E 139°50'3 3.4
2016-Apr-28 20:33N 35°36' E 139°46'3 2.8
2016-Apr-28 19:33N 35°38' E 139°46'0 0.3
2016-Apr-28 18:26N 35°39' E 139°46'0 0.0
2016-Apr-28 17:26N 35°39' E 139°46'0 0.0
2016-Apr-28 16:32N 35°39' E 139°46'0 0.0
2016-Apr-28 15:32N 35°39' E 139°46'0 0.0
2016-Apr-28 14:32N 35°39' E 139°46'0 0.0
2016-Apr-28 13:32N 35°39' E 139°46'0 0.0
2016-Apr-28 12:32N 35°39' E 139°46'0 0.0
2016-Apr-28 11:32N 35°39' E 139°46'0 0.0
2016-Apr-28 10:26N 35°39' E 139°46'0 0.0
2016-Apr-28 09:32N 35°39' E 139°46'0 0.0
2016-Apr-28 08:32N 35°39' E 139°46'0 0.0
2016-Apr-28 07:29N 35°39' E 139°46'0 0.0
2016-Apr-28 06:32N 35°39' E 139°46'0 0.0
2016-Apr-28 05:29N 35°39' E 139°46'0 0.0
2016-Apr-28 04:23N 35°39' E 139°46'0 0.0
2016-Apr-28 03:26N 35°39' E 139°46'0 0.0
2016-Apr-28 02:26N 35°39' E 139°46'0 0.0
2016-Apr-28 01:29N 35°39' E 139°46'0 0.0
2016-Apr-28 00:32N 35°39' E 139°46'3 2.9
2016-Apr-27 23:33N 35°36' E 139°47'2 2.5
2016-Apr-27 22:33N 35°34' E 139°48'1 1.2
2016-Apr-27 21:34N 35°35' E 139°48'4 4.0
2016-Apr-27 20:32N 35°39' E 139°46'0 0.0
2016-Apr-27 19:32N 35°39' E 139°46'0 0.0
2016-Apr-27 18:32N 35°39' E 139°46'0 0.0
2016-Apr-27 17:26N 35°39' E 139°46'0 0.0
2016-Apr-27 16:32N 35°39' E 139°46'0 0.0
2016-Apr-27 15:29N 35°39' E 139°46'0 0.0
2016-Apr-27 14:32N 35°39' E 139°46'0 0.0
2016-Apr-27 13:32N 35°39' E 139°46'0 0.0
2016-Apr-27 12:32N 35°39' E 139°46'0 0.0
2016-Apr-27 11:29N 35°39' E 139°46'0 0.0
2016-Apr-27 10:32N 35°39' E 139°46'0 0.0
2016-Apr-27 09:32N 35°39' E 139°46'0 0.0
2016-Apr-27 08:32N 35°39' E 139°46'0 0.0
2016-Apr-27 07:29N 35°39' E 139°46'0 0.0
2016-Apr-27 06:32N 35°39' E 139°46'0 0.0
2016-Apr-27 04:26N 35°39' E 139°46'0 0.0
2016-Apr-27 03:32N 35°39' E 139°46'0 0.0
2016-Apr-27 02:29N 35°39' E 139°46'0 0.0
2016-Apr-27 01:32N 35°39' E 139°46'0 0.0
2016-Apr-27 00:32N 35°39' E 139°46'0 0.0
2016-Apr-26 23:29N 35°39' E 139°46'0 0.0
2016-Apr-26 22:26N 35°39' E 139°46'0 0.0
2016-Apr-26 21:32N 35°39' E 139°46'0 0.0
2016-Apr-26 20:32N 35°39' E 139°46'0 0.0
2016-Apr-26 19:29N 35°39' E 139°46'2 2.4
2016-Apr-26 18:33N 35°37' E 139°46'0 0.2
2016-Apr-26 17:33N 35°37' E 139°46'1 1.3
2016-Apr-26 16:32N 35°38' E 139°46'0 0.0
2016-Apr-26 15:32N 35°38' E 139°46'0 0.0
2016-Apr-26 14:32N 35°38' E 139°46'0 0.0
2016-Apr-26 13:32N 35°38' E 139°46'3 2.6
2016-Apr-26 12:33N 35°36' E 139°48'1 0.8
2016-Apr-26 11:20N 35°36' E 139°46'0 0.0
2016-Apr-26 10:32N 35°36' E 139°46'0 0.0
2016-Apr-26 09:26N 35°36' E 139°46'0 0.5
2016-Apr-26 08:33N 35°36' E 139°47'0 0.4
2016-Apr-26 07:34N 35°36' E 139°47'3 3.0
2016-Apr-26 06:30N 35°39' E 139°46'0 0.0
2016-Apr-26 05:33N 35°39' E 139°46'0 0.0
2016-Apr-26 04:27N 35°39' E 139°46'0 0.0
2016-Apr-26 03:30N 35°39' E 139°46'0 0.0
2016-Apr-26 02:33N 35°39' E 139°46'0 0.0
2016-Apr-26 01:33N 35°39' E 139°46'0 0.0
2016-Apr-26 00:27N 35°39' E 139°46'0 0.0
2016-Apr-25 23:33N 35°39' E 139°46'3 3.5
2016-Apr-25 22:34N 35°36' E 139°47'0 0.2
2016-Apr-25 21:33N 35°36' E 139°47'3 3.1
2016-Apr-25 20:29N 35°39' E 139°46'0 0.0
2016-Apr-25 19:32N 35°39' E 139°46'0 0.0
2016-Apr-25 18:26N 35°39' E 139°46'0 0.0
2016-Apr-25 17:32N 35°39' E 139°46'0 0.0
2016-Apr-25 16:26N 35°39' E 139°46'0 0.0
2016-Apr-25 15:26N 35°39' E 139°46'0 0.0
2016-Apr-25 14:29N 35°39' E 139°46'0 0.0
2016-Apr-25 13:29N 35°39' E 139°46'0 0.0
2016-Apr-25 12:32N 35°39' E 139°46'0 0.0
2016-Apr-25 11:32N 35°39' E 139°46'0 0.0
2016-Apr-25 10:32N 35°39' E 139°46'0 0.0
2016-Apr-25 09:32N 35°39' E 139°46'0 0.0
2016-Apr-25 08:32N 35°39' E 139°46'0 0.0
2016-Apr-25 07:26N 35°39' E 139°46'0 0.0
2016-Apr-25 06:32N 35°39' E 139°46'0 0.0
2016-Apr-25 05:32N 35°39' E 139°46'0 0.0
2016-Apr-25 04:29N 35°39' E 139°46'0 0.0
2016-Apr-25 03:32N 35°39' E 139°46'0 0.0
2016-Apr-25 02:32N 35°39' E 139°46'0 0.0
2016-Apr-25 01:32N 35°39' E 139°46'0 0.0
2016-Apr-25 00:29N 35°39' E 139°46'0 0.0
2016-Apr-24 23:32N 35°39' E 139°46'0 0.0
2016-Apr-24 22:32N 35°39' E 139°46'0 0.0
2016-Apr-24 21:29N 35°39' E 139°46'0 0.0
2016-Apr-24 20:29N 35°39' E 139°46'0 0.0
2016-Apr-24 19:29N 35°39' E 139°46'0 0.0
2016-Apr-24 18:32N 35°39' E 139°46'0 0.0
2016-Apr-24 17:32N 35°39' E 139°46'0 0.0
2016-Apr-24 16:32N 35°39' E 139°46'0 0.0
2016-Apr-24 15:32N 35°39' E 139°46'3 3.0
2016-Apr-24 14:32N 35°36' E 139°47'1 0.7
2016-Apr-24 13:33N 35°36' E 139°46'2 1.5
2016-Apr-24 12:26N 35°38' E 139°46'0 0.0
2016-Apr-24 11:32N 35°38' E 139°46'0 0.0
2016-Apr-24 10:32N 35°38' E 139°46'2 2.2
2016-Apr-24 09:30N 35°36' E 139°47'1 0.6
2016-Apr-24 08:33N 35°36' E 139°47'2 2.5
2016-Apr-24 07:32N 35°39' E 139°46'0 0.0
2016-Apr-24 06:32N 35°39' E 139°46'0 0.0
2016-Apr-24 05:32N 35°39' E 139°46'0 0.0
2016-Apr-24 04:23N 35°39' E 139°46'0 0.0
2016-Apr-24 03:32N 35°39' E 139°46'0 0.0
2016-Apr-24 02:26N 35°39' E 139°46'0 0.0
2016-Apr-24 01:29N 35°39' E 139°46'0 0.0
2016-Apr-24 00:32N 35°39' E 139°46'0 0.0
2016-Apr-23 23:32N 35°39' E 139°46'0 0.0
2016-Apr-23 22:32N 35°39' E 139°46'0 0.0
2016-Apr-23 21:32N 35°39' E 139°46'0 0.0
2016-Apr-23 20:32N 35°39' E 139°46'0 0.0
2016-Apr-23 19:32N 35°39' E 139°46'0 0.0
2016-Apr-23 18:32N 35°39' E 139°46'0 0.0
2016-Apr-23 17:32N 35°39' E 139°46'0 0.0
2016-Apr-23 16:32N 35°39' E 139°46'0 0.0
2016-Apr-23 15:32N 35°39' E 139°46'0 0.0
2016-Apr-23 14:32N 35°39' E 139°46'0 0.0
2016-Apr-23 13:32N 35°39' E 139°46'0 0.0
2016-Apr-23 12:32N 35°39' E 139°46'0 0.0
2016-Apr-23 11:32N 35°39' E 139°46'0 0.0
2016-Apr-23 10:32N 35°39' E 139°46'0 0.0
2016-Apr-23 09:32N 35°39' E 139°46'0 0.0
2016-Apr-23 08:29N 35°39' E 139°46'0 0.0
2016-Apr-23 07:32N 35°39' E 139°46'0 0.0
2016-Apr-23 06:32N 35°39' E 139°46'0 0.0
2016-Apr-23 05:32N 35°39' E 139°46'2 2.2
2016-Apr-23 04:33N 35°37' E 139°47'2 2.2
2016-Apr-23 03:33N 35°35' E 139°48'1 1.1
2016-Apr-23 02:31N 35°35' E 139°47'0 0.1
2016-Apr-23 01:33N 35°35' E 139°47'4 3.3
2016-Apr-23 00:29N 35°39' E 139°46'0 0.0
2016-Apr-22 23:23N 35°39' E 139°46'0 0.0
2016-Apr-22 22:32N 35°39' E 139°46'0 0.0
2016-Apr-22 21:29N 35°39' E 139°46'0 0.0
2016-Apr-22 20:29N 35°39' E 139°46'0 0.0
2016-Apr-22 19:29N 35°39' E 139°46'0 0.0
2016-Apr-22 18:32N 35°39' E 139°46'0 0.0
2016-Apr-22 17:32N 35°39' E 139°46'0 0.0
2016-Apr-22 16:32N 35°39' E 139°46'0 0.0
2016-Apr-22 15:32N 35°39' E 139°46'0 0.0
2016-Apr-22 14:32N 35°39' E 139°46'0 0.0
2016-Apr-22 13:26N 35°39' E 139°46'0 0.0
2016-Apr-22 12:32N 35°39' E 139°46'0 0.0
2016-Apr-22 11:32N 35°39' E 139°46'3 2.9
2016-Apr-22 10:34N 35°36' E 139°47'2 2.1
2016-Apr-22 09:33N 35°38' E 139°46'2 2.1
2016-Apr-22 08:33N 35°37' E 139°48'1 1.2
2016-Apr-22 07:30N 35°36' E 139°46'1 0.6
2016-Apr-22 06:27N 35°36' E 139°46'1 1.1
2016-Apr-22 05:33N 35°37' E 139°47'2 2.2
2016-Apr-22 04:29N 35°39' E 139°46'0 0.0
2016-Apr-22 03:32N 35°39' E 139°46'0 0.0
2016-Apr-22 02:32N 35°39' E 139°46'0 0.0
2016-Apr-22 01:32N 35°39' E 139°46'0 0.0
2016-Apr-22 00:32N 35°39' E 139°46'0 0.0
2016-Apr-21 23:32N 35°39' E 139°46'3 2.7
2016-Apr-21 22:31N 35°36' E 139°46'2 1.7
2016-Apr-21 21:33N 35°35' E 139°48'4 3.9
2016-Apr-21 20:30N 35°39' E 139°46'0 0.0
2016-Apr-21 19:33N 35°39' E 139°46'0 0.0
2016-Apr-21 18:33N 35°39' E 139°46'0 0.0
2016-Apr-21 17:33N 35°39' E 139°46'0 0.0
2016-Apr-21 16:30N 35°39' E 139°46'0 0.0
2016-Apr-21 15:33N 35°39' E 139°46'0 0.0
2016-Apr-21 14:30N 35°39' E 139°46'0 0.0
2016-Apr-21 13:33N 35°39' E 139°46'0 0.0
2016-Apr-21 12:33N 35°39' E 139°46'0 0.0
2016-Apr-21 11:30N 35°39' E 139°46'0 0.0
2016-Apr-21 10:33N 35°39' E 139°46'2 1.8
2016-Apr-21 09:33N 35°37' E 139°46'2 2.5
2016-Apr-21 08:33N 35°35' E 139°48'1 1.1
2016-Apr-21 07:30N 35°36' E 139°46'2 1.8
2016-Apr-21 06:33N 35°37' E 139°46'2 1.5
2016-Apr-21 05:31N 35°39' E 139°46'0 0.0
2016-Apr-21 04:31N 35°39' E 139°46'0 0.0
2016-Apr-21 03:19N 35°39' E 139°46'0 0.0
2016-Apr-21 02:28N 35°39' E 139°46'0 0.0
2016-Apr-21 01:31N 35°39' E 139°46'0 0.0
2016-Apr-21 00:28N 35°39' E 139°46'0 0.0
2016-Apr-20 23:31N 35°39' E 139°46'3 2.9
2016-Apr-20 22:32N 35°36' E 139°47'3 2.8
2016-Apr-20 21:31N 35°34' E 139°49'3 3.3
2016-Apr-20 20:33N 35°36' E 139°46'0 0.3
2016-Apr-20 19:33N 35°36' E 139°46'3 2.8
2016-Apr-20 18:31N 35°39' E 139°46'0 0.0
2016-Apr-20 17:31N 35°39' E 139°46'0 0.0
2016-Apr-20 16:28N 35°39' E 139°46'0 0.0
2016-Apr-20 15:19N 35°39' E 139°46'0 0.0
2016-Apr-20 14:25N 35°39' E 139°46'0 0.0
2016-Apr-20 13:31N 35°39' E 139°46'0 0.0
2016-Apr-20 12:31N 35°39' E 139°46'0 0.0
2016-Apr-20 11:31N 35°39' E 139°46'0 0.0
2016-Apr-20 10:28N 35°39' E 139°46'0 0.0
2016-Apr-20 09:31N 35°39' E 139°46'0 0.0
2016-Apr-20 08:31N 35°39' E 139°46'0 0.0
2016-Apr-20 07:31N 35°39' E 139°46'0 0.0
2016-Apr-20 06:19N 35°39' E 139°46'0 0.0
2016-Apr-20 05:31N 35°39' E 139°46'2 1.9
2016-Apr-20 04:33N 35°37' E 139°46'3 2.6
2016-Apr-20 03:33N 35°35' E 139°48'3 2.9
2016-Apr-20 02:33N 35°37' E 139°46'2 1.4
2016-Apr-20 01:29N 35°39' E 139°46'0 0.0
2016-Apr-20 00:29N 35°39' E 139°46'0 0.0
2016-Apr-19 23:32N 35°39' E 139°46'0 0.0
2016-Apr-19 22:26N 35°39' E 139°46'0 0.0
2016-Apr-19 21:32N 35°39' E 139°46'0 0.0
2016-Apr-19 20:32N 35°39' E 139°46'0 0.0
2016-Apr-19 19:20N 35°39' E 139°46'0 0.0
2016-Apr-19 18:23N 35°39' E 139°46'0 0.0
2016-Apr-19 17:32N 35°39' E 139°46'0 0.0
2016-Apr-19 16:32N 35°39' E 139°46'0 0.0
2016-Apr-19 15:32N 35°39' E 139°46'0 0.0
2016-Apr-19 14:29N 35°39' E 139°46'0 0.0
2016-Apr-19 13:32N 35°39' E 139°46'  

Dump ship's entire track history